createdAt,value
2019-06-26T00:00:42.706Z,21.44
2019-06-26T00:03:11.351Z,21.36
2019-06-26T00:06:33.589Z,21.30
2019-06-26T00:09:02.330Z,21.27
2019-06-26T00:11:31.119Z,21.19
2019-06-26T00:13:59.759Z,21.10
2019-06-26T00:16:28.423Z,21.09
2019-06-26T00:19:00.179Z,21.06
2019-06-26T00:21:29.002Z,20.99
2019-06-26T00:23:57.656Z,21.00
2019-06-26T00:26:26.421Z,20.94
2019-06-26T00:28:56.919Z,20.87
2019-06-26T00:31:28.826Z,20.81
2019-06-26T00:33:57.780Z,20.74
2019-06-26T00:36:27.430Z,20.70
2019-06-26T00:38:57.768Z,20.64
2019-06-26T00:41:29.772Z,20.65
2019-06-26T00:43:58.677Z,20.68
2019-06-26T00:46:27.343Z,20.71
2019-06-26T00:48:56.318Z,20.76
2019-06-26T00:51:26.604Z,20.82
2019-06-26T00:53:55.326Z,20.75
2019-06-26T00:56:25.085Z,20.72
2019-06-26T00:58:53.751Z,20.79
2019-06-26T01:01:22.391Z,20.70
2019-06-26T01:03:52.677Z,20.67
2019-06-26T01:06:38.875Z,20.64
2019-06-26T01:09:07.602Z,20.63
2019-06-26T01:11:36.442Z,20.65
2019-06-26T01:14:05.396Z,20.72
2019-06-26T01:16:34.095Z,20.82
2019-06-26T01:19:02.876Z,20.99
2019-06-26T01:21:31.684Z,21.07
2019-06-26T01:24:00.397Z,21.03
2019-06-26T01:26:29.109Z,21.11
2019-06-26T01:28:57.935Z,21.17
2019-06-26T01:31:26.588Z,21.12
2019-06-26T01:33:55.962Z,21.11
2019-06-26T01:36:27.497Z,21.12
2019-06-26T01:38:57.903Z,21.14
2019-06-26T01:41:29.820Z,21.18
2019-06-26T01:44:13.599Z,21.21
2019-06-26T01:46:28.862Z,21.17
2019-06-26T01:48:57.502Z,21.18
2019-06-26T01:51:27.602Z,21.25
2019-06-26T01:53:58.314Z,21.14
2019-06-26T01:56:28.452Z,21.06
2019-06-26T01:58:58.618Z,21.05
2019-06-26T02:01:30.075Z,21.02
2019-06-26T02:03:58.898Z,21.06
2019-06-26T02:06:27.559Z,21.09
2019-06-26T02:08:57.811Z,21.09
2019-06-26T02:11:29.300Z,21.05
2019-06-26T02:13:58.035Z,20.99
2019-06-26T02:16:26.875Z,20.94
2019-06-26T02:19:03.292Z,20.88
2019-06-26T02:21:32.034Z,20.91
2019-06-26T02:24:00.701Z,20.89
2019-06-26T02:26:29.510Z,20.90
2019-06-26T02:28:58.231Z,20.91
2019-06-26T02:31:27.189Z,20.85
2019-06-26T02:33:55.838Z,20.84
2019-06-26T02:36:26.723Z,20.80
2019-06-26T02:38:55.444Z,20.76
2019-06-26T02:41:26.439Z,20.72
2019-06-26T02:43:55.383Z,20.76
2019-06-26T02:46:24.213Z,20.74
2019-06-26T02:48:53.259Z,20.72
2019-06-26T02:51:21.892Z,20.80
2019-06-26T02:53:50.553Z,20.84
2019-06-26T02:56:19.278Z,20.78
2019-06-26T02:58:48.026Z,20.84
2019-06-26T03:01:16.708Z,20.76
2019-06-26T03:03:45.383Z,20.72
2019-06-26T03:06:14.046Z,20.71
2019-06-26T03:08:42.987Z,20.71
2019-06-26T03:11:11.941Z,20.62
2019-06-26T03:13:40.591Z,20.62
2019-06-26T03:16:09.680Z,20.64
2019-06-26T03:18:38.346Z,20.69
2019-06-26T03:21:06.999Z,20.72
2019-06-26T03:23:35.660Z,20.78
2019-06-26T03:26:04.451Z,20.69
2019-06-26T03:28:33.199Z,20.63
2019-06-26T03:31:01.885Z,20.68
2019-06-26T03:33:30.540Z,20.68
2019-06-26T03:35:59.504Z,20.64
2019-06-26T03:38:28.354Z,20.57
2019-06-26T03:40:58.786Z,20.51
2019-06-26T03:43:27.737Z,20.48
2019-06-26T03:45:59.447Z,20.52
2019-06-26T03:48:28.237Z,20.47
2019-06-26T03:50:57.697Z,20.44
2019-06-26T03:53:28.782Z,20.47
2019-06-26T03:55:57.450Z,20.49
2019-06-26T03:58:27.594Z,20.53
2019-06-26T04:00:59.121Z,20.51
2019-06-26T04:03:28.108Z,20.56
2019-06-26T04:05:56.791Z,20.60
2019-06-26T04:08:25.593Z,20.56
2019-06-26T04:10:54.617Z,20.61
2019-06-26T04:13:23.282Z,20.62
2019-06-26T04:15:51.934Z,20.71
2019-06-26T04:18:20.620Z,20.81
2019-06-26T04:20:49.485Z,20.82
2019-06-26T04:23:18.164Z,20.84
2019-06-26T04:25:46.831Z,20.93
2019-06-26T04:28:15.748Z,21.00
2019-06-26T04:30:44.453Z,21.01
2019-06-26T04:33:13.436Z,21.08
2019-06-26T04:35:42.377Z,21.10
2019-06-26T04:38:11.203Z,21.11
2019-06-26T04:40:39.857Z,21.27
2019-06-26T04:43:08.830Z,21.28
2019-06-26T04:45:37.494Z,21.32
2019-06-26T04:48:07.425Z,21.36
2019-06-26T04:50:36.302Z,21.43
2019-06-26T04:53:05.010Z,21.48
2019-06-26T04:55:33.848Z,21.59
2019-06-26T04:58:02.572Z,21.66
2019-06-26T05:00:31.354Z,21.77
2019-06-26T05:03:00.050Z,21.86
2019-06-26T05:05:39.086Z,21.91
2019-06-26T05:07:59.050Z,22.00
2019-06-26T05:10:27.942Z,22.03
2019-06-26T05:12:56.660Z,22.13
2019-06-26T05:15:25.320Z,22.27
2019-06-26T05:17:55.108Z,22.37
2019-06-26T05:20:23.714Z,22.49
2019-06-26T05:22:52.670Z,22.61
2019-06-26T05:25:21.307Z,22.75
2019-06-26T05:27:50.233Z,22.86
2019-06-26T05:30:19.574Z,22.99
2019-06-26T05:32:48.273Z,23.17
2019-06-26T05:35:17.024Z,23.30
2019-06-26T05:37:45.793Z,23.48
2019-06-26T05:40:15.234Z,23.53
2019-06-26T05:42:43.931Z,23.66
2019-06-26T05:45:13.381Z,23.75
2019-06-26T05:47:42.285Z,23.91
2019-06-26T05:50:11.830Z,24.13
2019-06-26T05:52:42.693Z,24.17
2019-06-26T05:55:11.055Z,24.36
2019-06-26T05:57:41.953Z,24.47
2019-06-26T06:00:12.005Z,24.61
2019-06-26T06:02:40.660Z,24.69
2019-06-26T06:05:09.713Z,24.82
2019-06-26T06:07:38.602Z,24.89
2019-06-26T06:10:07.343Z,24.99
2019-06-26T06:12:36.034Z,25.07
2019-06-26T06:15:10.167Z,25.18
2019-06-26T06:17:38.857Z,25.25
2019-06-26T06:20:08.491Z,25.29
2019-06-26T06:22:37.949Z,25.38
2019-06-26T06:25:06.713Z,25.45
2019-06-26T06:27:35.637Z,25.54
2019-06-26T06:30:06.861Z,25.69
2019-06-26T06:32:35.514Z,25.75
2019-06-26T06:35:04.769Z,25.78
2019-06-26T06:37:33.486Z,25.88
2019-06-26T06:40:02.090Z,25.94
2019-06-26T06:42:31.020Z,26.04
2019-06-26T06:44:59.739Z,26.12
2019-06-26T06:47:28.387Z,26.17
2019-06-26T06:50:00.257Z,26.26
2019-06-26T06:52:28.910Z,26.34
2019-06-26T06:54:58.068Z,26.46
2019-06-26T06:57:27.206Z,26.55
2019-06-26T06:59:55.930Z,26.65
2019-06-26T07:02:26.041Z,26.76
2019-06-26T07:04:54.951Z,26.86
2019-06-26T07:07:23.737Z,26.91
2019-06-26T07:09:52.710Z,27.02
2019-06-26T07:12:21.503Z,27.03
2019-06-26T07:14:50.216Z,27.09
2019-06-26T07:17:20.945Z,27.20
2019-06-26T07:19:49.537Z,27.28
2019-06-26T07:22:18.274Z,27.40
2019-06-26T07:24:46.944Z,27.51
2019-06-26T07:27:15.796Z,27.50
2019-06-26T07:29:44.457Z,27.57
2019-06-26T07:32:13.206Z,27.72
2019-06-26T07:34:42.026Z,27.89
2019-06-26T07:37:10.683Z,27.98
2019-06-26T07:39:39.375Z,28.07
2019-06-26T07:42:08.035Z,28.15
2019-06-26T07:44:36.831Z,28.28
2019-06-26T07:47:21.779Z,28.38
2019-06-26T07:49:36.763Z,28.50
2019-06-26T07:52:05.686Z,28.55
2019-06-26T07:54:34.584Z,28.68
2019-06-26T07:57:03.531Z,28.71
2019-06-26T07:59:32.265Z,28.78
2019-06-26T08:02:00.923Z,28.92
2019-06-26T08:04:29.628Z,29.01
2019-06-26T08:06:58.609Z,29.17
2019-06-26T08:09:30.345Z,29.32
2019-06-26T08:11:59.497Z,29.38
2019-06-26T08:14:28.304Z,29.45
2019-06-26T08:16:59.006Z,29.52
2019-06-26T08:19:27.741Z,29.66
2019-06-26T08:21:59.059Z,29.78
2019-06-26T08:24:27.632Z,29.91
2019-06-26T08:26:56.397Z,30.01
2019-06-26T08:29:26.588Z,30.17
2019-06-26T08:31:55.364Z,30.31
2019-06-26T08:34:25.371Z,30.46
2019-06-26T08:36:54.208Z,30.60
2019-06-26T08:39:22.959Z,30.66
2019-06-26T08:41:51.537Z,30.79
2019-06-26T08:44:20.209Z,30.93
2019-06-26T08:46:48.952Z,31.02
2019-06-26T08:49:25.775Z,31.14
2019-06-26T08:51:48.059Z,31.22
2019-06-26T08:54:16.733Z,31.31
2019-06-26T08:56:46.447Z,31.41
2019-06-26T08:59:15.110Z,31.56
2019-06-26T09:01:43.847Z,31.66
2019-06-26T09:04:12.449Z,31.78
2019-06-26T09:06:41.508Z,31.95
2019-06-26T09:09:10.102Z,32.06
2019-06-26T09:11:38.945Z,32.12
2019-06-26T09:14:07.797Z,32.23
2019-06-26T09:16:36.869Z,32.29
2019-06-26T09:19:05.695Z,32.45
2019-06-26T09:21:34.759Z,32.50
2019-06-26T09:24:03.393Z,32.50
2019-06-26T09:26:32.415Z,32.52
2019-06-26T09:29:01.068Z,32.66
2019-06-26T09:31:29.819Z,32.85
2019-06-26T09:33:58.479Z,32.94
2019-06-26T09:36:30.150Z,33.16
2019-06-26T09:38:58.991Z,33.34
2019-06-26T09:41:28.134Z,33.50
2019-06-26T09:43:56.778Z,33.61
2019-06-26T09:46:26.108Z,33.70
2019-06-26T09:48:55.717Z,33.87
2019-06-26T09:51:26.165Z,34.01
2019-06-26T09:53:55.408Z,34.11
2019-06-26T09:56:24.206Z,34.15
2019-06-26T09:58:52.924Z,34.15
2019-06-26T10:01:21.584Z,34.28
2019-06-26T10:03:50.227Z,34.43
2019-06-26T10:06:18.925Z,34.57
2019-06-26T10:08:47.674Z,34.55
2019-06-26T10:11:16.406Z,34.70
2019-06-26T10:13:45.066Z,34.79
2019-06-26T10:16:13.815Z,34.92
2019-06-26T10:18:42.815Z,35.03
2019-06-26T10:21:11.586Z,34.90
2019-06-26T10:23:40.250Z,34.96
2019-06-26T10:26:08.822Z,35.17
2019-06-26T10:28:37.687Z,35.32
2019-06-26T10:31:06.397Z,35.10
2019-06-26T10:33:35.155Z,35.07
2019-06-26T10:36:04.202Z,35.08
2019-06-26T10:38:32.859Z,35.27
2019-06-26T10:41:01.509Z,35.44
2019-06-26T10:43:30.154Z,35.46
2019-06-26T10:45:58.869Z,35.69
2019-06-26T10:48:27.511Z,35.81
2019-06-26T10:50:58.983Z,35.73
2019-06-26T10:53:27.750Z,36.16
2019-06-26T10:55:59.158Z,36.29
2019-06-26T10:58:27.987Z,36.36
2019-06-26T11:00:56.709Z,36.10
2019-06-26T11:03:25.851Z,36.07
2019-06-26T11:05:55.020Z,36.04
2019-06-26T11:08:25.450Z,36.28
2019-06-26T11:10:56.055Z,36.76
2019-06-26T11:13:27.698Z,36.98
2019-06-26T11:15:59.120Z,37.17
2019-06-26T11:18:28.086Z,37.38
2019-06-26T11:20:56.732Z,37.33
2019-06-26T11:23:25.484Z,37.48
2019-06-26T11:25:54.051Z,37.62
2019-06-26T11:28:22.713Z,37.85
2019-06-26T11:30:51.395Z,37.77
2019-06-26T11:33:20.046Z,37.57
2019-06-26T11:35:48.784Z,37.52
2019-06-26T11:38:17.529Z,37.08
2019-06-26T11:40:46.665Z,37.29
2019-06-26T11:43:15.302Z,37.35
2019-06-26T11:45:43.990Z,37.62
2019-06-26T11:48:12.639Z,37.99
2019-06-26T11:50:41.284Z,38.09
2019-06-26T11:53:09.973Z,38.18
2019-06-26T11:55:38.670Z,38.31
2019-06-26T11:58:07.494Z,38.38
2019-06-26T12:00:36.196Z,37.98
2019-06-26T12:03:05.240Z,37.43
2019-06-26T12:05:33.978Z,37.16
2019-06-26T12:08:03.238Z,37.49
2019-06-26T12:10:32.012Z,37.76
2019-06-26T12:13:03.883Z,37.81
2019-06-26T12:15:31.079Z,37.67
2019-06-26T12:17:59.710Z,38.01
2019-06-26T12:20:28.530Z,38.38
2019-06-26T12:23:00.301Z,37.86
2019-06-26T12:25:28.966Z,38.09
2019-06-26T12:27:57.922Z,38.15
2019-06-26T12:30:27.706Z,38.02
2019-06-26T12:33:03.300Z,38.24
2019-06-26T12:35:29.418Z,38.11
2019-06-26T12:37:58.456Z,38.24
2019-06-26T12:40:31.488Z,38.02
2019-06-26T12:43:00.157Z,38.00
2019-06-26T12:45:29.048Z,37.95
2019-06-26T12:47:57.704Z,37.58
2019-06-26T12:50:35.289Z,37.43
2019-06-26T12:52:59.676Z,37.34
2019-06-26T12:55:32.775Z,37.57
2019-06-26T12:58:12.674Z,37.36
2019-06-26T13:00:29.839Z,37.50
2019-06-26T13:02:58.535Z,36.76
2019-06-26T13:05:29.896Z,36.79
2019-06-26T13:07:58.833Z,37.07
2019-06-26T13:10:27.521Z,36.82
2019-06-26T13:12:57.701Z,36.55
2019-06-26T13:15:29.356Z,36.57
2019-06-26T13:18:01.369Z,36.54
2019-06-26T13:20:28.568Z,36.20
2019-06-26T13:22:59.967Z,36.42
2019-06-26T13:25:28.816Z,36.62
2019-06-26T13:27:57.511Z,37.00
2019-06-26T13:30:37.991Z,37.28
2019-06-26T13:33:06.824Z,36.75
2019-06-26T13:35:35.513Z,36.83
2019-06-26T13:38:04.157Z,37.13
2019-06-26T13:40:32.733Z,36.89
2019-06-26T13:43:01.373Z,37.04
2019-06-26T13:45:30.158Z,37.29
2019-06-26T13:47:58.903Z,37.50
2019-06-26T13:50:27.744Z,37.54
2019-06-26T13:52:59.709Z,37.77
2019-06-26T13:55:28.946Z,37.60
2019-06-26T13:57:57.678Z,37.15
2019-06-26T14:00:29.688Z,37.37
2019-06-26T14:02:58.398Z,37.59
2019-06-26T14:05:29.538Z,37.76
2019-06-26T14:07:57.750Z,37.73
2019-06-26T14:10:29.167Z,37.98
2019-06-26T14:12:58.121Z,38.00
2019-06-26T14:15:26.919Z,38.14
2019-06-26T14:17:58.542Z,37.78
2019-06-26T14:20:30.123Z,37.95
2019-06-26T14:22:59.084Z,37.97
2019-06-26T14:25:27.752Z,37.82
2019-06-26T14:27:59.168Z,38.06
2019-06-26T14:30:28.250Z,38.18
2019-06-26T14:32:58.301Z,38.07
2019-06-26T14:35:28.701Z,37.74
2019-06-26T14:37:57.354Z,37.97
2019-06-26T14:40:27.465Z,37.73
2019-06-26T14:42:57.552Z,37.97
2019-06-26T14:45:27.945Z,38.19
2019-06-26T14:47:56.600Z,38.53
2019-06-26T14:50:25.244Z,38.99
2019-06-26T14:52:55.909Z,39.49
2019-06-26T14:55:25.183Z,39.88
2019-06-26T14:57:53.680Z,40.44
2019-06-26T15:00:22.323Z,41.25
2019-06-26T15:02:51.122Z,40.90
2019-06-26T15:05:19.843Z,40.61
2019-06-26T15:07:50.217Z,40.75
2019-06-26T15:10:19.569Z,40.79
2019-06-26T15:12:48.296Z,40.74
2019-06-26T15:15:17.237Z,40.28
2019-06-26T15:17:46.118Z,40.43
2019-06-26T15:20:16.532Z,40.26
2019-06-26T15:22:45.230Z,40.20
2019-06-26T15:25:14.513Z,40.22
2019-06-26T15:27:43.180Z,40.25
2019-06-26T15:30:12.208Z,40.35
2019-06-26T15:32:40.847Z,39.96
2019-06-26T15:35:09.731Z,39.91
2019-06-26T15:37:38.593Z,39.43
2019-06-26T15:40:07.854Z,39.00
2019-06-26T15:42:36.506Z,38.58
2019-06-26T15:45:06.597Z,38.08
2019-06-26T15:47:35.330Z,37.93
2019-06-26T15:50:10.758Z,37.55
2019-06-26T15:52:39.111Z,37.33
2019-06-26T15:55:08.290Z,37.10
2019-06-26T15:57:36.968Z,36.66
2019-06-26T16:00:06.810Z,36.59
2019-06-26T16:02:35.494Z,36.35
2019-06-26T16:05:05.950Z,36.34
2019-06-26T16:07:34.597Z,36.28
2019-06-26T16:10:04.448Z,36.32
2019-06-26T16:12:33.109Z,36.11
2019-06-26T16:15:01.935Z,35.88
2019-06-26T16:17:35.141Z,35.71
2019-06-26T16:20:05.063Z,35.51
2019-06-26T16:22:33.635Z,35.30
2019-06-26T16:25:02.374Z,35.14
2019-06-26T16:27:30.981Z,35.21
2019-06-26T16:29:59.763Z,35.20
2019-06-26T16:32:28.501Z,35.35
2019-06-26T16:35:00.205Z,35.28
2019-06-26T16:37:29.053Z,35.28
2019-06-26T16:39:57.710Z,35.13
2019-06-26T16:42:29.465Z,35.11
2019-06-26T16:44:58.121Z,35.08
2019-06-26T16:47:27.119Z,34.89
2019-06-26T16:49:55.815Z,34.78
2019-06-26T16:52:26.659Z,34.66
2019-06-26T16:54:55.434Z,34.61
2019-06-26T16:57:24.142Z,34.51
2019-06-26T17:00:08.496Z,34.47
2019-06-26T17:02:23.450Z,34.48
2019-06-26T17:04:52.203Z,34.38
2019-06-26T17:07:20.932Z,34.21
2019-06-26T17:09:49.679Z,34.12
2019-06-26T17:12:18.798Z,34.08
2019-06-26T17:14:47.543Z,34.05
2019-06-26T17:17:16.269Z,33.97
2019-06-26T17:19:45.029Z,33.91
2019-06-26T17:22:13.828Z,33.86
2019-06-26T17:24:42.889Z,33.73
2019-06-26T17:27:11.625Z,33.58
2019-06-26T17:29:40.468Z,33.52
2019-06-26T17:32:09.193Z,33.46
2019-06-26T17:34:38.051Z,33.41
2019-06-26T17:37:06.887Z,33.27
2019-06-26T17:39:35.933Z,33.23
2019-06-26T17:42:04.884Z,33.16
2019-06-26T17:44:33.739Z,33.12
2019-06-26T17:47:05.376Z,33.05
2019-06-26T17:49:33.341Z,32.99
2019-06-26T17:52:02.518Z,32.95
2019-06-26T17:54:31.325Z,32.78
2019-06-26T17:57:00.067Z,32.72
2019-06-26T17:59:28.803Z,32.66
2019-06-26T18:01:57.742Z,32.52
2019-06-26T18:04:29.766Z,32.42
2019-06-26T18:06:58.607Z,32.28
2019-06-26T18:09:30.619Z,32.24
2019-06-26T18:11:59.768Z,32.13
2019-06-26T18:14:28.500Z,32.06
2019-06-26T18:16:59.916Z,31.86
2019-06-26T18:19:28.663Z,31.83
2019-06-26T18:22:00.267Z,31.73
2019-06-26T18:24:28.906Z,31.60
2019-06-26T18:26:58.055Z,31.54
2019-06-26T18:29:26.898Z,31.43
2019-06-26T18:31:55.721Z,31.32
2019-06-26T18:34:25.181Z,31.22
2019-06-26T18:36:55.172Z,31.22
2019-06-26T18:39:24.067Z,31.16
2019-06-26T18:41:53.081Z,31.02
2019-06-26T18:44:21.805Z,30.89
2019-06-26T18:46:50.710Z,30.77
2019-06-26T18:49:19.900Z,30.69
2019-06-26T18:51:48.671Z,30.57
2019-06-26T18:54:17.950Z,30.43
2019-06-26T18:56:49.929Z,30.40
2019-06-26T18:59:18.699Z,30.29
2019-06-26T19:01:47.538Z,30.12
2019-06-26T19:04:16.481Z,30.07
2019-06-26T19:06:47.094Z,30.03
2019-06-26T19:09:16.226Z,29.96
2019-06-26T19:11:44.968Z,29.84
2019-06-26T19:14:13.701Z,29.69
2019-06-26T19:16:42.438Z,29.64
2019-06-26T19:19:12.325Z,29.56
2019-06-26T19:21:41.264Z,29.46
2019-06-26T19:24:10.839Z,29.40
2019-06-26T19:26:39.702Z,29.25
2019-06-26T19:29:08.432Z,29.19
2019-06-26T19:31:37.390Z,29.13
2019-06-26T19:34:06.122Z,29.08
2019-06-26T19:36:49.186Z,28.97
2019-06-26T19:39:07.106Z,28.87
2019-06-26T19:41:35.937Z,28.73
2019-06-26T19:44:04.787Z,28.61
2019-06-26T19:46:33.638Z,28.54
2019-06-26T19:49:02.473Z,28.48
2019-06-26T19:51:31.501Z,28.39
2019-06-26T19:54:00.231Z,28.32
2019-06-26T19:56:28.973Z,28.23
2019-06-26T19:58:57.713Z,28.11
2019-06-26T20:01:29.545Z,28.13
2019-06-26T20:03:58.247Z,28.04
2019-06-26T20:06:28.370Z,27.98
2019-06-26T20:08:58.867Z,27.95
2019-06-26T20:11:27.694Z,27.91
2019-06-26T20:13:59.411Z,27.88
2019-06-26T20:16:28.370Z,27.79
2019-06-26T20:18:58.529Z,27.71
2019-06-26T20:21:30.030Z,27.68
2019-06-26T20:23:58.765Z,27.63
2019-06-26T20:26:27.632Z,27.55
2019-06-26T20:28:56.570Z,27.43
2019-06-26T20:31:25.688Z,27.42
2019-06-26T20:33:54.556Z,27.35
2019-06-26T20:36:23.286Z,27.28
2019-06-26T20:38:51.941Z,27.19
2019-06-26T20:41:20.829Z,27.13
2019-06-26T20:43:50.268Z,27.06
2019-06-26T20:46:19.091Z,27.05
2019-06-26T20:48:47.850Z,26.94
2019-06-26T20:51:20.568Z,26.91
2019-06-26T20:53:47.590Z,26.90
2019-06-26T20:56:16.786Z,26.84
2019-06-26T20:58:45.482Z,26.72
2019-06-26T21:01:14.331Z,26.64
2019-06-26T21:03:43.084Z,26.62
2019-06-26T21:06:11.919Z,26.55
2019-06-26T21:08:40.876Z,26.48
2019-06-26T21:11:09.721Z,26.38
2019-06-26T21:13:38.388Z,26.31
2019-06-26T21:16:07.130Z,26.24
2019-06-26T21:18:36.523Z,26.29
2019-06-26T21:21:05.252Z,26.21
2019-06-26T21:23:34.012Z,26.13
2019-06-26T21:26:02.771Z,26.11
2019-06-26T21:28:31.538Z,26.07
2019-06-26T21:31:00.601Z,26.03
2019-06-26T21:33:29.448Z,26.01
2019-06-26T21:35:58.341Z,25.96
2019-06-26T21:38:28.967Z,25.94
2019-06-26T21:40:57.692Z,25.83
2019-06-26T21:43:29.206Z,25.80
2019-06-26T21:45:57.855Z,25.72
2019-06-26T21:48:29.357Z,25.73
2019-06-26T21:50:58.007Z,25.67
2019-06-26T21:53:26.715Z,25.61
2019-06-26T21:55:55.752Z,25.52
2019-06-26T21:58:26.604Z,25.48
2019-06-26T22:00:55.762Z,25.39
2019-06-26T22:03:26.201Z,25.29
2019-06-26T22:05:55.124Z,25.28
2019-06-26T22:08:23.781Z,25.22
2019-06-26T22:10:52.974Z,25.24
2019-06-26T22:13:22.000Z,25.05
2019-06-26T22:15:50.828Z,24.99
2019-06-26T22:18:19.488Z,24.91
2019-06-26T22:20:48.134Z,24.83
2019-06-26T22:23:16.847Z,24.83
2019-06-26T22:25:50.862Z,24.74
2019-06-26T22:28:16.347Z,24.69
2019-06-26T22:30:45.099Z,24.61
2019-06-26T22:33:13.857Z,24.56
2019-06-26T22:35:43.440Z,24.46
2019-06-26T22:38:12.365Z,24.39
2019-06-26T22:40:41.353Z,24.33
2019-06-26T22:43:10.075Z,24.24
2019-06-26T22:45:38.739Z,24.23
2019-06-26T22:48:07.778Z,24.20
2019-06-26T22:50:36.461Z,24.10
2019-06-26T22:53:05.359Z,23.99
2019-06-26T22:55:34.005Z,23.96
2019-06-26T22:58:02.665Z,23.92
2019-06-26T23:00:31.510Z,23.89
2019-06-26T23:03:00.356Z,23.85
2019-06-26T23:05:29.289Z,23.78
2019-06-26T23:07:57.996Z,23.69
2019-06-26T23:10:26.643Z,23.67
2019-06-26T23:12:55.524Z,23.61
2019-06-26T23:15:24.896Z,23.43
2019-06-26T23:17:53.620Z,23.36
2019-06-26T23:20:22.350Z,23.27
2019-06-26T23:22:51.515Z,23.21
2019-06-26T23:25:20.643Z,23.17
2019-06-26T23:27:49.293Z,23.04
2019-06-26T23:30:19.038Z,22.96
2019-06-26T23:32:47.935Z,22.82
2019-06-26T23:35:16.577Z,22.75
2019-06-26T23:37:45.275Z,22.67
2019-06-26T23:40:14.022Z,22.59
2019-06-26T23:42:42.799Z,22.57
2019-06-26T23:45:11.932Z,22.45
2019-06-26T23:47:40.598Z,22.40
2019-06-26T23:50:09.249Z,22.37
2019-06-26T23:52:37.946Z,22.29
2019-06-26T23:55:06.978Z,22.17
2019-06-26T23:57:35.658Z,22.13
